sensor_id;sensor_type;location;lat;lon;timestamp;pressure;altitude;pressure_sealevel;temperature;humidity
12468;BME280;57850;52.922;6.256;2023-04-28T00:01:09;101938.88;;;10.93;100.00
12468;BME280;57850;52.922;6.256;2023-04-28T00:03:36;101937.81;;;11.00;100.00
12468;BME280;57850;52.922;6.256;2023-04-28T00:06:03;101932.41;;;11.10;100.00
12468;BME280;57850;52.922;6.256;2023-04-28T00:08:30;101927.22;;;11.07;100.00
12468;BME280;57850;52.922;6.256;2023-04-28T00:10:57;101929.75;;;11.12;100.00
12468;BME280;57850;52.922;6.256;2023-04-28T00:13:23;101935.94;;;11.06;100.00
12468;BME280;57850;52.922;6.256;2023-04-28T00:15:52;101930.72;;;11.06;100.00
12468;BME280;57850;52.922;6.256;2023-04-28T00:18:18;101928.41;;;10.93;100.00
12468;BME280;57850;52.922;6.256;2023-04-28T00:20:45;101931.16;;;10.85;100.00
12468;BME280;57850;52.922;6.256;2023-04-28T00:23:11;101916.19;;;10.95;100.00
12468;BME280;57850;52.922;6.256;2023-04-28T00:25:38;101909.22;;;10.95;100.00
12468;BME280;57850;52.922;6.256;2023-04-28T00:28:05;101898.03;;;10.87;100.00
12468;BME280;57850;52.922;6.256;2023-04-28T00:30:31;101902.78;;;10.68;100.00
12468;BME280;57850;52.922;6.256;2023-04-28T00:32:59;101900.41;;;10.58;100.00
12468;BME280;57850;52.922;6.256;2023-04-28T00:35:26;101885.13;;;10.81;100.00
12468;BME280;57850;52.922;6.256;2023-04-28T00:37:52;101877.28;;;10.83;100.00
12468;BME280;57850;52.922;6.256;2023-04-28T00:40:19;101878.19;;;10.80;100.00
12468;BME280;57850;52.922;6.256;2023-04-28T00:42:45;101875.59;;;10.79;100.00
12468;BME280;57850;52.922;6.256;2023-04-28T00:45:12;101866.75;;;10.86;100.00
12468;BME280;57850;52.922;6.256;2023-04-28T00:47:38;101873.72;;;10.85;100.00
12468;BME280;57850;52.922;6.256;2023-04-28T00:50:08;101872.94;;;10.82;100.00
12468;BME280;57850;52.922;6.256;2023-04-28T00:52:35;101874.13;;;10.65;100.00
12468;BME280;57850;52.922;6.256;2023-04-28T00:55:04;101859.94;;;10.79;100.00
12468;BME280;57850;52.922;6.256;2023-04-28T00:57:30;101858.94;;;10.84;100.00
12468;BME280;57850;52.922;6.256;2023-04-28T00:59:57;101852.09;;;10.80;100.00
12468;BME280;57850;52.922;6.256;2023-04-28T01:02:25;101858.13;;;10.84;100.00
12468;BME280;57850;52.922;6.256;2023-04-28T01:04:54;101873.63;;;10.47;100.00
12468;BME280;57850;52.922;6.256;2023-04-28T01:07:22;101854.72;;;10.79;100.00
12468;BME280;57850;52.922;6.256;2023-04-28T01:09:49;101861.66;;;10.80;100.00
12468;BME280;57850;52.922;6.256;2023-04-28T01:12:15;101854.50;;;10.89;100.00
12468;BME280;57850;52.922;6.256;2023-04-28T01:14:42;101854.84;;;10.74;100.00
12468;BME280;57850;52.922;6.256;2023-04-28T01:17:09;101857.78;;;10.56;100.00
12468;BME280;57850;52.922;6.256;2023-04-28T01:19:36;101846.34;;;10.63;100.00
12468;BME280;57850;52.922;6.256;2023-04-28T01:22:03;101848.13;;;10.61;100.00
12468;BME280;57850;52.922;6.256;2023-04-28T01:24:31;101851.81;;;10.52;100.00
12468;BME280;57850;52.922;6.256;2023-04-28T01:26:58;101838.63;;;10.58;100.00
12468;BME280;57850;52.922;6.256;2023-04-28T01:29:24;101837.09;;;10.47;100.00
12468;BME280;57850;52.922;6.256;2023-04-28T01:31:51;101818.75;;;10.51;100.00
12468;BME280;57850;52.922;6.256;2023-04-28T01:34:17;101826.47;;;10.56;100.00
12468;BME280;57850;52.922;6.256;2023-04-28T01:36:44;101808.81;;;10.68;100.00
12468;BME280;57850;52.922;6.256;2023-04-28T01:39:10;101808.22;;;10.56;100.00
12468;BME280;57850;52.922;6.256;2023-04-28T01:41:38;101804.03;;;10.49;100.00
12468;BME280;57850;52.922;6.256;2023-04-28T01:44:04;101799.63;;;10.51;100.00
12468;BME280;57850;52.922;6.256;2023-04-28T01:46:31;101797.63;;;10.62;100.00
12468;BME280;57850;52.922;6.256;2023-04-28T01:48:58;101787.09;;;10.68;100.00
12468;BME280;57850;52.922;6.256;2023-04-28T01:51:25;101794.41;;;10.52;100.00
12468;BME280;57850;52.922;6.256;2023-04-28T01:53:52;101774.81;;;10.71;100.00
12468;BME280;57850;52.922;6.256;2023-04-28T01:56:18;101770.22;;;10.83;100.00
12468;BME280;57850;52.922;6.256;2023-04-28T01:58:46;101777.88;;;10.52;100.00
12468;BME280;57850;52.922;6.256;2023-04-28T02:01:13;101774.34;;;10.53;100.00
12468;BME280;57850;52.922;6.256;2023-04-28T02:03:39;101757.72;;;10.58;100.00
12468;BME280;57850;52.922;6.256;2023-04-28T02:06:06;101772.72;;;10.49;100.00
12468;BME280;57850;52.922;6.256;2023-04-28T02:08:32;101764.34;;;10.73;100.00
12468;BME280;57850;52.922;6.256;2023-04-28T02:10:59;101761.06;;;10.65;100.00
12468;BME280;57850;52.922;6.256;2023-04-28T02:13:26;101756.34;;;10.42;100.00
12468;BME280;57850;52.922;6.256;2023-04-28T02:15:53;101752.72;;;10.48;100.00
12468;BME280;57850;52.922;6.256;2023-04-28T02:18:20;101735.81;;;10.65;100.00
12468;BME280;57850;52.922;6.256;2023-04-28T02:20:47;101750.13;;;10.48;100.00
12468;BME280;57850;52.922;6.256;2023-04-28T02:23:13;101755.47;;;10.42;100.00
12468;BME280;57850;52.922;6.256;2023-04-28T02:25:40;101742.13;;;10.55;100.00
12468;BME280;57850;52.922;6.256;2023-04-28T02:28:09;101746.84;;;10.38;100.00
12468;BME280;57850;52.922;6.256;2023-04-28T02:30:35;101746.25;;;10.65;100.00
12468;BME280;57850;52.922;6.256;2023-04-28T02:33:03;101752.72;;;10.48;100.00
12468;BME280;57850;52.922;6.256;2023-04-28T02:35:30;101746.88;;;10.37;100.00
12468;BME280;57850;52.922;6.256;2023-04-28T02:37:56;101742.38;;;10.43;100.00
12468;BME280;57850;52.922;6.256;2023-04-28T02:40:23;101729.66;;;10.28;100.00
12468;BME280;57850;52.922;6.256;2023-04-28T02:42:49;101720.75;;;10.40;100.00
12468;BME280;57850;52.922;6.256;2023-04-28T02:45:16;101715.13;;;10.56;100.00
12468;BME280;57850;52.922;6.256;2023-04-28T02:47:42;101714.28;;;10.56;100.00
12468;BME280;57850;52.922;6.256;2023-04-28T02:50:10;101720.69;;;10.41;100.00
12468;BME280;57850;52.922;6.256;2023-04-28T02:52:37;101703.84;;;10.56;100.00
12468;BME280;57850;52.922;6.256;2023-04-28T02:55:05;101718.72;;;10.52;100.00
12468;BME280;57850;52.922;6.256;2023-04-28T02:57:32;101711.88;;;10.47;100.00
12468;BME280;57850;52.922;6.256;2023-04-28T02:59:58;101710.72;;;10.60;100.00
12468;BME280;57850;52.922;6.256;2023-04-28T03:02:25;101706.34;;;10.60;100.00
12468;BME280;57850;52.922;6.256;2023-04-28T03:04:51;101705.69;;;10.52;100.00
12468;BME280;57850;52.922;6.256;2023-04-28T03:07:19;101701.19;;;10.57;100.00
12468;BME280;57850;52.922;6.256;2023-04-28T03:09:46;101693.25;;;10.62;100.00
12468;BME280;57850;52.922;6.256;2023-04-28T03:12:12;101696.97;;;10.52;100.00
12468;BME280;57850;52.922;6.256;2023-04-28T03:14:39;101704.44;;;10.29;100.00
12468;BME280;57850;52.922;6.256;2023-04-28T03:17:05;101696.22;;;10.47;100.00
12468;BME280;57850;52.922;6.256;2023-04-28T03:19:32;101700.63;;;10.45;100.00
12468;BME280;57850;52.922;6.256;2023-04-28T03:21:58;101691.91;;;10.46;100.00
12468;BME280;57850;52.922;6.256;2023-04-28T03:24:26;101699.72;;;10.46;100.00
12468;BME280;57850;52.922;6.256;2023-04-28T03:26:53;101691.06;;;10.44;100.00
12468;BME280;57850;52.922;6.256;2023-04-28T03:29:19;101684.81;;;10.51;100.00
12468;BME280;57850;52.922;6.256;2023-04-28T03:31:48;101683.88;;;10.55;100.00
12468;BME280;57850;52.922;6.256;2023-04-28T03:34:15;101680.41;;;10.54;100.00
12468;BME280;57850;52.922;6.256;2023-04-28T03:36:41;101676.97;;;10.52;100.00
12468;BME280;57850;52.922;6.256;2023-04-28T03:39:08;101669.97;;;10.54;100.00
12468;BME280;57850;52.922;6.256;2023-04-28T03:41:36;101672.78;;;10.44;100.00
12468;BME280;57850;52.922;6.256;2023-04-28T03:44:02;101656.84;;;10.57;100.00
12468;BME280;57850;52.922;6.256;2023-04-28T03:46:29;101656.69;;;10.65;100.00
12468;BME280;57850;52.922;6.256;2023-04-28T03:48:55;101670.38;;;10.36;100.00
12468;BME280;57850;52.922;6.256;2023-04-28T03:51:22;101673.94;;;10.31;100.00
12468;BME280;57850;52.922;6.256;2023-04-28T03:53:48;101669.53;;;10.34;100.00
12468;BME280;57850;52.922;6.256;2023-04-28T03:56:15;101665.03;;;10.41;100.00
12468;BME280;57850;52.922;6.256;2023-04-28T03:58:43;101646.72;;;10.44;100.00
12468;BME280;57850;52.922;6.256;2023-04-28T04:01:10;101640.75;;;10.37;100.00
12468;BME280;57850;52.922;6.256;2023-04-28T04:03:37;101635.81;;;10.27;100.00
12468;BME280;57850;52.922;6.256;2023-04-28T04:06:04;101631.47;;;10.27;100.00
12468;BME280;57850;52.922;6.256;2023-04-28T04:08:31;101631.28;;;10.35;100.00
12468;BME280;57850;52.922;6.256;2023-04-28T04:10:58;101625.97;;;10.39;100.00
12468;BME280;57850;52.922;6.256;2023-04-28T04:13:24;101624.41;;;10.31;100.00
12468;BME280;57850;52.922;6.256;2023-04-28T04:15:52;101616.56;;;10.31;100.00
12468;BME280;57850;52.922;6.256;2023-04-28T04:18:19;101610.75;;;10.19;100.00
12468;BME280;57850;52.922;6.256;2023-04-28T04:20:45;101608.94;;;10.21;100.00
12468;BME280;57850;52.922;6.256;2023-04-28T04:23:12;101610.59;;;10.27;100.00
12468;BME280;57850;52.922;6.256;2023-04-28T04:25:39;101604.53;;;10.25;100.00
12468;BME280;57850;52.922;6.256;2023-04-28T04:28:05;101607.41;;;10.14;100.00
12468;BME280;57850;52.922;6.256;2023-04-28T04:30:32;101610.88;;;10.13;100.00
12468;BME280;57850;52.922;6.256;2023-04-28T04:32:59;101600.25;;;10.23;100.00
12468;BME280;57850;52.922;6.256;2023-04-28T04:35:26;101593.16;;;10.28;100.00
12468;BME280;57850;52.922;6.256;2023-04-28T04:37:53;101600.03;;;10.32;100.00
12468;BME280;57850;52.922;6.256;2023-04-28T04:40:19;101594.75;;;10.35;100.00
12468;BME280;57850;52.922;6.256;2023-04-28T04:42:46;101596.41;;;10.39;100.00
12468;BME280;57850;52.922;6.256;2023-04-28T04:45:12;101609.44;;;10.39;100.00
12468;BME280;57850;52.922;6.256;2023-04-28T04:47:39;101601.47;;;10.45;100.00
12468;BME280;57850;52.922;6.256;2023-04-28T04:50:10;101609.66;;;10.30;100.00
12468;BME280;57850;52.922;6.256;2023-04-28T04:52:37;101593.88;;;10.34;100.00
12468;BME280;57850;52.922;6.256;2023-04-28T04:55:04;101592.06;;;10.38;100.00
12468;BME280;57850;52.922;6.256;2023-04-28T04:57:31;101585.09;;;10.40;100.00
12468;BME280;57850;52.922;6.256;2023-04-28T04:59:57;101591.97;;;10.42;100.00
12468;BME280;57850;52.922;6.256;2023-04-28T05:02:24;101584.09;;;10.44;100.00
12468;BME280;57850;52.922;6.256;2023-04-28T05:04:50;101577.81;;;10.52;100.00
12468;BME280;57850;52.922;6.256;2023-04-28T05:07:18;101577.03;;;10.49;100.00
12468;BME280;57850;52.922;6.256;2023-04-28T05:09:45;101570.41;;;10.69;100.00
12468;BME280;57850;52.922;6.256;2023-04-28T05:12:11;101568.53;;;10.76;100.00
12468;BME280;57850;52.922;6.256;2023-04-28T05:14:40;101565.66;;;10.85;100.00
12468;BME280;57850;52.922;6.256;2023-04-28T05:17:06;101563.13;;;10.84;100.00
12468;BME280;57850;52.922;6.256;2023-04-28T05:19:33;101564.03;;;10.81;100.00
12468;BME280;57850;52.922;6.256;2023-04-28T05:22:00;101557.91;;;10.84;100.00
12468;BME280;57850;52.922;6.256;2023-04-28T05:24:28;101562.72;;;10.65;100.00
12468;BME280;57850;52.922;6.256;2023-04-28T05:26:57;101562.34;;;10.79;100.00
12468;BME280;57850;52.922;6.256;2023-04-28T05:29:24;101568.28;;;10.50;100.00
12468;BME280;57850;52.922;6.256;2023-04-28T05:31:50;101550.00;;;10.85;100.00
12468;BME280;57850;52.922;6.256;2023-04-28T05:34:17;101555.28;;;10.84;100.00
12468;BME280;57850;52.922;6.256;2023-04-28T05:36:44;101553.50;;;10.84;100.00
12468;BME280;57850;52.922;6.256;2023-04-28T05:39:10;101546.03;;;11.03;100.00
12468;BME280;57850;52.922;6.256;2023-04-28T05:41:38;101549.56;;;11.02;100.00
12468;BME280;57850;52.922;6.256;2023-04-28T05:44:05;101556.19;;;10.81;100.00
12468;BME280;57850;52.922;6.256;2023-04-28T05:46:31;101549.97;;;10.87;100.00
12468;BME280;57850;52.922;6.256;2023-04-28T05:48:58;101542.00;;;10.91;100.00
12468;BME280;57850;52.922;6.256;2023-04-28T05:51:25;101550.03;;;11.16;100.00
12468;BME280;57850;52.922;6.256;2023-04-28T05:53:52;101558.13;;;11.07;100.00
12468;BME280;57850;52.922;6.256;2023-04-28T05:56:18;101557.25;;;11.08;100.00
12468;BME280;57850;52.922;6.256;2023-04-28T05:58:46;101544.72;;;11.20;100.00
12468;BME280;57850;52.922;6.256;2023-04-28T06:01:14;101547.75;;;11.05;100.00
12468;BME280;57850;52.922;6.256;2023-04-28T06:03:41;101539.22;;;11.29;100.00
12468;BME280;57850;52.922;6.256;2023-04-28T06:06:09;101540.88;;;11.34;100.00
12468;BME280;57850;52.922;6.256;2023-04-28T06:08:36;101533.22;;;11.26;100.00
12468;BME280;57850;52.922;6.256;2023-04-28T06:11:03;101547.50;;;11.14;100.00
12468;BME280;57850;52.922;6.256;2023-04-28T06:13:30;101535.16;;;11.19;100.00
12468;BME280;57850;52.922;6.256;2023-04-28T06:15:58;101538.72;;;11.15;100.00
12468;BME280;57850;52.922;6.256;2023-04-28T06:18:24;101536.91;;;11.19;100.00
12468;BME280;57850;52.922;6.256;2023-04-28T06:20:51;101531.56;;;11.23;100.00
12468;BME280;57850;52.922;6.256;2023-04-28T06:23:17;101534.59;;;11.08;100.00
12468;BME280;57850;52.922;6.256;2023-04-28T06:25:44;101529.22;;;11.13;100.00
12468;BME280;57850;52.922;6.256;2023-04-28T06:28:10;101533.50;;;11.15;100.00
12468;BME280;57850;52.922;6.256;2023-04-28T06:30:39;101544.97;;;11.11;100.00
12468;BME280;57850;52.922;6.256;2023-04-28T06:33:07;101536.28;;;11.09;100.00
12468;BME280;57850;52.922;6.256;2023-04-28T06:35:34;101532.78;;;11.10;100.00
12468;BME280;57850;52.922;6.256;2023-04-28T06:38:03;101516.19;;;11.13;100.00
12468;BME280;57850;52.922;6.256;2023-04-28T06:40:29;101511.63;;;11.19;100.00
12468;BME280;57850;52.922;6.256;2023-04-28T06:42:56;101504.41;;;11.29;100.00
12468;BME280;57850;52.922;6.256;2023-04-28T06:45:23;101501.59;;;11.37;100.00
12468;BME280;57850;52.922;6.256;2023-04-28T06:47:49;101486.22;;;11.55;100.00
12468;BME280;57850;52.922;6.256;2023-04-28T06:50:18;101482.19;;;11.44;100.00
12468;BME280;57850;52.922;6.256;2023-04-28T06:52:44;101479.19;;;11.57;100.00
12468;BME280;57850;52.922;6.256;2023-04-28T06:55:15;101474.94;;;11.53;100.00
12468;BME280;57850;52.922;6.256;2023-04-28T06:57:42;101467.06;;;11.55;100.00
12468;BME280;57850;52.922;6.256;2023-04-28T07:00:10;101458.16;;;11.62;100.00
12468;BME280;57850;52.922;6.256;2023-04-28T07:02:37;101444.81;;;11.71;100.00
12468;BME280;57850;52.922;6.256;2023-04-28T07:05:04;101447.09;;;11.81;100.00
12468;BME280;57850;52.922;6.256;2023-04-28T07:07:32;101443.34;;;11.90;100.00
12468;BME280;57850;52.922;6.256;2023-04-28T07:09:58;101438.19;;;12.13;100.00
12468;BME280;57850;52.922;6.256;2023-04-28T07:12:26;101441.81;;;12.09;100.00
12468;BME280;57850;52.922;6.256;2023-04-28T07:14:53;101449.25;;;11.95;100.00
12468;BME280;57850;52.922;6.256;2023-04-28T07:17:20;101448.00;;;12.07;100.00
12468;BME280;57850;52.922;6.256;2023-04-28T07:19:46;101436.47;;;12.12;100.00
12468;BME280;57850;52.922;6.256;2023-04-28T07:22:14;101436.25;;;12.20;100.00
12468;BME280;57850;52.922;6.256;2023-04-28T07:24:42;101415.44;;;12.42;100.00
12468;BME280;57850;52.922;6.256;2023-04-28T07:27:09;101417.25;;;12.15;100.00
12468;BME280;57850;52.922;6.256;2023-04-28T07:29:35;101410.06;;;12.46;100.00
12468;BME280;57850;52.922;6.256;2023-04-28T07:32:02;101405.69;;;12.47;100.00
12468;BME280;57850;52.922;6.256;2023-04-28T07:34:29;101407.00;;;12.81;100.00
12468;BME280;57850;52.922;6.256;2023-04-28T07:36:56;101419.81;;;12.41;100.00
12468;BME280;57850;52.922;6.256;2023-04-28T07:39:22;101421.38;;;12.47;100.00
12468;BME280;57850;52.922;6.256;2023-04-28T07:41:50;101412.56;;;12.49;100.00
12468;BME280;57850;52.922;6.256;2023-04-28T07:44:17;101411.72;;;12.72;100.00
12468;BME280;57850;52.922;6.256;2023-04-28T07:46:43;101409.00;;;12.75;100.00
12468;BME280;57850;52.922;6.256;2023-04-28T07:49:10;101411.63;;;12.75;100.00
12468;BME280;57850;52.922;6.256;2023-04-28T07:51:36;101405.50;;;12.99;100.00
12468;BME280;57850;52.922;6.256;2023-04-28T07:54:03;101417.41;;;13.08;100.00
12468;BME280;57850;52.922;6.256;2023-04-28T07:56:29;101405.97;;;13.33;100.00
12468;BME280;57850;52.922;6.256;2023-04-28T07:58:57;101402.03;;;13.22;100.00
12468;BME280;57850;52.922;6.256;2023-04-28T08:01:24;101415.97;;;12.99;100.00
12468;BME280;57850;52.922;6.256;2023-04-28T08:03:50;101416.22;;;12.93;100.00
12468;BME280;57850;52.922;6.256;2023-04-28T08:06:17;101422.78;;;13.03;100.00
12468;BME280;57850;52.922;6.256;2023-04-28T08:08:44;101443.88;;;13.00;100.00
12468;BME280;57850;52.922;6.256;2023-04-28T08:11:11;101448.81;;;12.84;100.00
12468;BME280;57850;52.922;6.256;2023-04-28T08:13:37;101454.88;;;12.37;100.00
12468;BME280;57850;52.922;6.256;2023-04-28T08:16:05;101435.94;;;12.78;100.00
12468;BME280;57850;52.922;6.256;2023-04-28T08:18:32;101415.22;;;12.96;100.00
12468;BME280;57850;52.922;6.256;2023-04-28T08:20:59;101409.22;;;13.17;100.00
12468;BME280;57850;52.922;6.256;2023-04-28T08:23:25;101413.63;;;13.38;100.00
12468;BME280;57850;52.922;6.256;2023-04-28T08:25:52;101410.50;;;13.52;100.00
12468;BME280;57850;52.922;6.256;2023-04-28T08:28:19;101406.72;;;13.80;100.00
12468;BME280;57850;52.922;6.256;2023-04-28T08:30:45;101407.75;;;13.76;100.00
12468;BME280;57850;52.922;6.256;2023-04-28T08:33:13;101398.34;;;13.92;100.00
12468;BME280;57850;52.922;6.256;2023-04-28T08:35:40;101403.41;;;13.75;100.00
12468;BME280;57850;52.922;6.256;2023-04-28T08:38:06;101401.75;;;13.73;100.00
12468;BME280;57850;52.922;6.256;2023-04-28T08:40:38;101399.38;;;13.67;100.00
12468;BME280;57850;52.922;6.256;2023-04-28T08:43:04;101393.03;;;13.72;100.00
12468;BME280;57850;52.922;6.256;2023-04-28T08:45:37;101393.00;;;13.74;100.00
12468;BME280;57850;52.922;6.256;2023-04-28T08:48:08;101374.59;;;13.95;100.00
12468;BME280;57850;52.922;6.256;2023-04-28T08:50:43;101381.19;;;14.06;100.00
12468;BME280;57850;52.922;6.256;2023-04-28T08:53:16;101394.00;;;13.91;100.00
12468;BME280;57850;52.922;6.256;2023-04-28T08:55:46;101407.00;;;13.94;100.00
12468;BME280;57850;52.922;6.256;2023-04-28T08:58:14;101403.72;;;14.10;100.00
12468;BME280;57850;52.922;6.256;2023-04-28T09:00:41;101398.81;;;14.02;100.00
12468;BME280;57850;52.922;6.256;2023-04-28T09:03:07;101381.91;;;14.29;100.00
12468;BME280;57850;52.922;6.256;2023-04-28T09:05:35;101377.22;;;14.37;100.00
12468;BME280;57850;52.922;6.256;2023-04-28T09:08:03;101374.66;;;14.56;100.00
12468;BME280;57850;52.922;6.256;2023-04-28T09:10:30;101371.72;;;14.43;100.00
12468;BME280;57850;52.922;6.256;2023-04-28T09:12:56;101362.44;;;14.55;100.00
12468;BME280;57850;52.922;6.256;2023-04-28T09:15:27;101363.41;;;14.53;100.00
12468;BME280;57850;52.922;6.256;2023-04-28T09:17:55;101352.78;;;14.56;100.00
12468;BME280;57850;52.922;6.256;2023-04-28T09:20:22;101336.75;;;14.62;100.00
12468;BME280;57850;52.922;6.256;2023-04-28T09:22:51;101324.78;;;14.75;100.00
12468;BME280;57850;52.922;6.256;2023-04-28T09:25:21;101319.56;;;14.92;100.00
12468;BME280;57850;52.922;6.256;2023-04-28T09:27:48;101301.69;;;15.54;100.00
12468;BME280;57850;52.922;6.256;2023-04-28T09:30:15;101287.69;;;15.88;100.00
12468;BME280;57850;52.922;6.256;2023-04-28T09:32:41;101273.47;;;16.25;100.00
12468;BME280;57850;52.922;6.256;2023-04-28T09:35:09;101265.84;;;16.03;100.00
12468;BME280;57850;52.922;6.256;2023-04-28T09:37:35;101269.50;;;15.84;100.00
12468;BME280;57850;52.922;6.256;2023-04-28T09:40:05;101261.78;;;16.14;100.00
12468;BME280;57850;52.922;6.256;2023-04-28T09:42:34;101251.84;;;16.51;100.00
12468;BME280;57850;52.922;6.256;2023-04-28T09:45:03;101238.47;;;17.03;100.00
12468;BME280;57850;52.922;6.256;2023-04-28T09:47:30;101200.78;;;18.18;100.00
12468;BME280;57850;52.922;6.256;2023-04-28T09:50:00;101254.38;;;16.86;100.00
12468;BME280;57850;52.922;6.256;2023-04-28T09:52:26;101255.91;;;16.74;100.00
12468;BME280;57850;52.922;6.256;2023-04-28T09:54:54;101251.03;;;16.82;100.00
12468;BME280;57850;52.922;6.256;2023-04-28T09:57:22;101263.59;;;16.13;100.00
12468;BME280;57850;52.922;6.256;2023-04-28T09:59:51;101260.25;;;16.59;100.00
12468;BME280;57850;52.922;6.256;2023-04-28T10:02:20;101232.72;;;17.26;100.00
12468;BME280;57850;52.922;6.256;2023-04-28T10:04:48;101175.66;;;18.54;100.00
12468;BME280;57850;52.922;6.256;2023-04-28T10:07:15;101145.56;;;18.96;100.00
12468;BME280;57850;52.922;6.256;2023-04-28T10:09:42;101157.84;;;18.97;100.00
12468;BME280;57850;52.922;6.256;2023-04-28T10:12:12;101185.47;;;18.38;100.00
12468;BME280;57850;52.922;6.256;2023-04-28T10:14:39;101189.66;;;17.99;100.00
12468;BME280;57850;52.922;6.256;2023-04-28T10:17:07;101216.19;;;17.38;100.00
12468;BME280;57850;52.922;6.256;2023-04-28T10:19:35;101208.56;;;17.63;100.00
12468;BME280;57850;52.922;6.256;2023-04-28T10:22:13;101191.44;;;17.99;100.00
12468;BME280;57850;52.922;6.256;2023-04-28T10:24:58;101180.97;;;18.26;100.00
12468;BME280;57850;52.922;6.256;2023-04-28T10:27:29;101163.28;;;18.54;100.00
12468;BME280;57850;52.922;6.256;2023-04-28T10:30:09;101137.84;;;18.93;100.00
12468;BME280;57850;52.922;6.256;2023-04-28T10:32:37;101150.94;;;18.82;100.00
12468;BME280;57850;52.922;6.256;2023-04-28T10:35:41;101147.19;;;18.71;100.00
12468;BME280;57850;52.922;6.256;2023-04-28T10:38:10;101133.38;;;19.20;100.00
12468;BME280;57850;52.922;6.256;2023-04-28T10:40:38;101154.50;;;18.40;100.00
12468;BME280;57850;52.922;6.256;2023-04-28T10:43:06;101149.22;;;18.81;100.00
12468;BME280;57850;52.922;6.256;2023-04-28T10:45:58;101143.69;;;18.71;100.00
12468;BME280;57850;52.922;6.256;2023-04-28T10:48:54;101163.00;;;18.45;100.00
12468;BME280;57850;52.922;6.256;2023-04-28T10:51:28;101157.50;;;18.62;100.00
12468;BME280;57850;52.922;6.256;2023-04-28T10:54:16;101125.84;;;19.26;100.00
12468;BME280;57850;52.922;6.256;2023-04-28T10:57:14;101129.69;;;19.35;100.00
12468;BME280;57850;52.922;6.256;2023-04-28T10:59:41;101130.19;;;19.27;100.00
12468;BME280;57850;52.922;6.256;2023-04-28T11:05:17;101165.84;;;18.56;100.00
12468;BME280;57850;52.922;6.256;2023-04-28T11:11:22;101147.16;;;18.86;100.00
12468;BME280;57850;52.922;6.256;2023-04-28T11:13:50;101164.81;;;18.30;100.00
12468;BME280;57850;52.922;6.256;2023-04-28T11:16:22;101156.31;;;18.39;100.00
12468;BME280;57850;52.922;6.256;2023-04-28T11:18:55;101165.59;;;18.04;100.00
12468;BME280;57850;52.922;6.256;2023-04-28T11:21:25;101150.34;;;18.36;100.00
12468;BME280;57850;52.922;6.256;2023-04-28T11:23:53;101151.78;;;18.41;100.00
12468;BME280;57850;52.922;6.256;2023-04-28T11:26:20;101173.44;;;17.91;100.00
12468;BME280;57850;52.922;6.256;2023-04-28T11:28:52;101161.34;;;18.15;100.00
12468;BME280;57850;52.922;6.256;2023-04-28T11:31:19;101164.53;;;18.20;100.00
12468;BME280;57850;52.922;6.256;2023-04-28T11:33:53;101169.75;;;17.94;100.00
12468;BME280;57850;52.922;6.256;2023-04-28T11:36:25;101180.47;;;17.77;100.00
12468;BME280;57850;52.922;6.256;2023-04-28T11:38:52;101209.16;;;16.78;100.00
12468;BME280;57850;52.922;6.256;2023-04-28T11:41:19;101185.53;;;17.36;100.00
12468;BME280;57850;52.922;6.256;2023-04-28T11:43:46;101188.84;;;17.25;100.00
12468;BME280;57850;52.922;6.256;2023-04-28T11:46:17;101202.16;;;16.92;100.00
12468;BME280;57850;52.922;6.256;2023-04-28T11:48:44;101179.91;;;17.42;100.00
12468;BME280;57850;52.922;6.256;2023-04-28T11:51:30;101168.03;;;17.05;100.00
12468;BME280;57850;52.922;6.256;2023-04-28T11:53:58;101183.63;;;16.94;100.00
12468;BME280;57850;52.922;6.256;2023-04-28T11:56:25;101140.34;;;17.42;100.00
12468;BME280;57850;52.922;6.256;2023-04-28T11:58:59;101169.88;;;17.19;100.00
12468;BME280;57850;52.922;6.256;2023-04-28T12:01:26;101163.69;;;17.20;100.00
12468;BME280;57850;52.922;6.256;2023-04-28T12:03:53;101171.88;;;16.37;100.00
12468;BME280;57850;52.922;6.256;2023-04-28T12:06:20;101150.06;;;16.19;100.00
12468;BME280;57850;52.922;6.256;2023-04-28T12:08:48;101134.44;;;16.32;100.00
12468;BME280;57850;52.922;6.256;2023-04-28T12:11:15;101129.44;;;16.58;100.00
12468;BME280;57850;52.922;6.256;2023-04-28T12:13:43;101139.03;;;16.75;100.00
12468;BME280;57850;52.922;6.256;2023-04-28T12:16:10;101116.31;;;16.88;100.00
12468;BME280;57850;52.922;6.256;2023-04-28T12:18:37;101116.81;;;16.32;100.00
12468;BME280;57850;52.922;6.256;2023-04-28T12:21:04;101092.88;;;16.37;100.00
12468;BME280;57850;52.922;6.256;2023-04-28T12:23:45;101078.28;;;16.31;100.00
12468;BME280;57850;52.922;6.256;2023-04-28T12:26:13;101068.41;;;16.66;100.00
12468;BME280;57850;52.922;6.256;2023-04-28T12:28:49;101052.56;;;16.96;100.00
12468;BME280;57850;52.922;6.256;2023-04-28T12:31:16;101068.50;;;16.33;100.00
12468;BME280;57850;52.922;6.256;2023-04-28T12:33:43;101057.44;;;16.42;100.00
12468;BME280;57850;52.922;6.256;2023-04-28T12:36:09;101059.41;;;16.54;100.00
12468;BME280;57850;52.922;6.256;2023-04-28T12:38:46;101062.88;;;16.39;100.00
12468;BME280;57850;52.922;6.256;2023-04-28T12:41:15;101056.53;;;16.28;100.00
12468;BME280;57850;52.922;6.256;2023-04-28T12:43:41;101050.34;;;16.74;100.00
12468;BME280;57850;52.922;6.256;2023-04-28T12:46:08;101018.78;;;16.43;100.00
12468;BME280;57850;52.922;6.256;2023-04-28T12:48:38;100989.88;;;15.96;100.00
12468;BME280;57850;52.922;6.256;2023-04-28T12:51:05;100927.59;;;15.65;100.00